Time;durP1;ratioP1;P1;durP2;ratioP2;P2;SDS_P1;SDS_P2;PMS_P1;PMS_P2;Temp;Humidity;BMP_temperature;BMP_pressure;BME280_temperature;BME280_humidity;BME280_pressure;Samples;Min_cycle;Max_cycle;Signal;HPM_P1;HPM_P2
2023/10/02 00:01:53;;;;;;;8.15;4.15;;;14.10;99.90;;;;;;4956032;29;20055;-72
2023/10/02 00:04:20;;;;;;;10.63;4.10;;;14.10;99.90;;;;;;4955479;29;20023;-70
2023/10/02 00:06:47;;;;;;;9.43;4.72;;;14.10;99.90;;;;;;4956009;29;20042;-70
2023/10/02 00:09:14;;;;;;;9.68;4.65;;;14.10;99.90;;;;;;4955136;29;20082;-70
2023/10/02 00:11:40;;;;;;;12.93;5.63;;;14.00;99.90;;;;;;4955659;29;20039;-70
2023/10/02 00:14:19;;;;;;;10.40;4.65;;;14.00;99.90;;;;;;4957156;28;20042;-71
2023/10/02 00:17:08;;;;;;;12.85;5.47;;;14.00;99.90;;;;;;4954721;29;20091;-71
2023/10/02 00:19:37;;;;;;;9.50;4.28;;;14.00;99.90;;;;;;4952245;29;20036;-69
2023/10/02 00:25:19;;;;;;;13.13;5.07;;;14.10;99.90;;;;;;4954855;29;21773;-71
2023/10/02 00:27:51;;;;;;;10.88;4.60;;;14.10;99.90;;;;;;4951120;29;20418;-72
2023/10/02 00:30:22;;;;;;;11.55;4.93;;;14.00;99.90;;;;;;4950699;29;20035;-72
2023/10/02 00:32:50;;;;;;;11.70;4.65;;;14.00;99.90;;;;;;4940612;29;20034;-71
2023/10/02 00:35:16;;;;;;;8.63;4.25;;;14.00;99.90;;;;;;4952822;29;20032;-71
2023/10/02 00:37:52;;;;;;;10.63;4.63;;;14.00;99.90;;;;;;4955760;28;20489;-70
2023/10/02 00:40:22;;;;;;;12.00;5.15;;;14.00;99.90;;;;;;4953198;29;20027;-72
2023/10/02 00:42:58;;;;;;;8.23;4.78;;;14.00;99.90;;;;;;4954645;29;20023;-73
2023/10/02 00:45:30;;;;;;;12.60;4.80;;;13.90;99.90;;;;;;4952574;29;20027;-71
2023/10/02 00:48:24;;;;;;;11.20;4.55;;;13.90;99.90;;;;;;4953042;29;20051;-71
2023/10/02 00:50:49;;;;;;;12.65;5.53;;;13.90;99.90;;;;;;4953485;28;20030;-72
2023/10/02 00:53:24;;;;;;;12.43;5.22;;;13.90;99.90;;;;;;4954273;29;20086;-70
2023/10/02 00:55:51;;;;;;;9.10;5.00;;;13.90;99.90;;;;;;4954351;29;20028;-71
2023/10/02 00:58:19;;;;;;;15.25;5.38;;;13.90;99.90;;;;;;4925677;29;20055;-70
2023/10/02 01:00:50;;;;;;;10.43;4.78;;;13.90;99.90;;;;;;4954034;29;20027;-71
2023/10/02 01:03:16;;;;;;;13.97;5.63;;;13.90;99.90;;;;;;4951603;29;20043;-72
2023/10/02 01:05:50;;;;;;;13.00;5.38;;;13.90;99.90;;;;;;4954174;29;20270;-70
2023/10/02 01:08:24;;;;;;;15.00;5.40;;;13.90;99.90;;;;;;4936735;29;20098;-70
2023/10/02 01:10:57;;;;;;;13.43;4.70;;;13.80;99.90;;;;;;4954101;29;20958;-72
2023/10/02 01:13:32;;;;;;;10.88;4.90;;;13.80;99.90;;;;;;4953988;29;20027;-73
2023/10/02 01:16:00;;;;;;;10.27;5.22;;;13.80;99.90;;;;;;4952477;29;20027;-71
2023/10/02 01:18:29;;;;;;;12.77;4.50;;;13.80;99.90;;;;;;4954202;29;20016;-72
2023/10/02 01:21:00;;;;;;;15.00;5.10;;;13.80;99.90;;;;;;4953284;29;20488;-71
2023/10/02 01:23:28;;;;;;;12.45;5.57;;;13.80;99.90;;;;;;4952402;29;20062;-71
2023/10/02 01:26:00;;;;;;;11.77;4.75;;;13.80;99.90;;;;;;4953399;29;20126;-73
2023/10/02 01:28:54;;;;;;;8.20;4.63;;;13.80;99.90;;;;;;4952615;28;20143;-71
2023/10/02 01:31:35;;;;;;;12.32;4.63;;;13.80;99.90;;;;;;4930500;29;20051;-71
2023/10/02 01:34:04;;;;;;;10.93;5.05;;;13.80;99.90;;;;;;4951237;29;20102;-73
2023/10/02 01:36:32;;;;;;;12.27;4.95;;;13.80;99.90;;;;;;4950970;29;20131;-71
2023/10/02 01:39:10;;;;;;;12.98;5.85;;;13.80;99.90;;;;;;4953634;29;20035;-72
2023/10/02 01:41:36;;;;;;;12.93;4.88;;;13.70;99.90;;;;;;4954052;29;20042;-72
2023/10/02 01:44:07;;;;;;;14.43;4.88;;;13.70;99.90;;;;;;4934497;29;20027;-72
2023/10/02 01:46:36;;;;;;;8.15;4.80;;;13.80;99.90;;;;;;4904081;29;20076;-70
2023/10/02 01:49:02;;;;;;;11.90;4.55;;;13.70;99.90;;;;;;4952447;29;20513;-70
2023/10/02 01:51:31;;;;;;;9.57;4.60;;;13.70;99.90;;;;;;4952671;29;20031;-70
2023/10/02 01:53:59;;;;;;;12.02;5.65;;;13.70;99.90;;;;;;4955385;28;20479;-70
2023/10/02 01:56:27;;;;;;;12.20;5.25;;;13.70;99.90;;;;;;4953776;29;20034;-71
2023/10/02 01:59:00;;;;;;;15.65;5.35;;;13.60;99.90;;;;;;4952454;29;20025;-69
2023/10/02 02:01:46;;;;;;;10.40;4.60;;;13.50;99.90;;;;;;4952222;28;20033;-72
2023/10/02 02:04:15;;;;;;;11.65;5.00;;;13.70;99.90;;;;;;4923649;29;20028;-71
2023/10/02 02:06:55;;;;;;;12.55;4.80;;;13.60;99.90;;;;;;4957163;29;20479;-70
2023/10/02 02:09:25;;;;;;;11.25;4.78;;;13.60;99.90;;;;;;4957919;28;20023;-70
2023/10/02 02:12:14;;;;;;;10.63;4.57;;;13.60;99.90;;;;;;4955846;29;20041;-72
2023/10/02 02:14:51;;;;;;;10.25;5.13;;;13.70;99.90;;;;;;4957084;29;20035;-72
2023/10/02 02:17:18;;;;;;;13.60;5.10;;;13.80;99.90;;;;;;4957153;29;20415;-72
2023/10/02 02:19:48;;;;;;;10.27;4.40;;;13.70;99.90;;;;;;4939558;29;20027;-72
2023/10/02 02:22:26;;;;;;;10.00;5.03;;;13.70;99.90;;;;;;4955601;29;20035;-71
2023/10/02 02:24:53;;;;;;;12.35;5.28;;;13.70;99.90;;;;;;4955540;29;20039;-70
2023/10/02 02:27:19;;;;;;;15.43;5.30;;;13.70;99.90;;;;;;4955394;28;20432;-72
2023/10/02 02:29:49;;;;;;;10.40;5.10;;;13.70;99.90;;;;;;4938582;29;20032;-70
2023/10/02 02:32:19;;;;;;;13.98;5.22;;;13.60;99.90;;;;;;4954283;29;20391;-69
2023/10/02 02:35:00;;;;;;;11.55;4.93;;;13.70;99.90;;;;;;4955085;29;20027;-72
2023/10/02 02:37:28;;;;;;;11.43;5.30;;;13.60;99.90;;;;;;4955620;29;20034;-74
2023/10/02 02:40:21;;;;;;;15.52;5.22;;;13.60;99.90;;;;;;4956517;29;20526;-73
2023/10/02 02:42:45;;;;;;;12.13;4.78;;;13.60;99.90;;;;;;4956660;29;20147;-72
2023/10/02 02:48:10;;;;;;;9.60;4.40;;;13.60;99.90;;;;;;4915784;29;20044;-73
2023/10/02 02:50:37;;;;;;;10.18;4.88;;;13.60;99.90;;;;;;4900297;29;20041;-73
2023/10/02 02:53:16;;;;;;;13.73;5.10;;;13.60;99.90;;;;;;4916240;29;20036;-72
2023/10/02 02:56:18;;;;;;;11.10;4.55;;;13.50;99.90;;;;;;4913999;29;20036;-70
2023/10/02 02:58:50;;;;;;;13.02;5.30;;;13.50;99.90;;;;;;4913462;29;20076;-71
2023/10/02 03:01:21;;;;;;;;;;;13.50;99.90;;;;;;4918990;29;20024;-71
2023/10/02 03:04:11;;;;;;;17.92;5.07;;;13.50;99.90;;;;;;4916080;29;19983;-71
2023/10/02 03:06:37;;;;;;;12.88;5.32;;;13.40;99.90;;;;;;4918773;29;20488;-72
2023/10/02 03:09:06;;;;;;;12.18;5.47;;;13.50;99.90;;;;;;4915372;29;20055;-73
2023/10/02 03:11:32;;;;;;;12.88;6.38;;;13.40;99.90;;;;;;4915621;29;20587;-70
2023/10/02 03:14:12;;;;;;;13.82;6.07;;;13.50;99.90;;;;;;4915209;29;20027;-73
2023/10/02 03:16:39;;;;;;;15.40;6.85;;;13.50;99.90;;;;;;4915294;29;20103;-73
2023/10/02 03:19:07;;;;;;;16.40;6.30;;;13.50;99.90;;;;;;4917807;29;20453;-70
2023/10/02 03:21:38;;;;;;;13.43;6.32;;;13.60;99.90;;;;;;4915481;29;20054;-71
2023/10/02 03:24:04;;;;;;;20.50;6.55;;;13.60;99.90;;;;;;4930584;29;20054;-70
2023/10/02 03:29:02;;;;;;;11.80;5.05;;;13.70;99.90;;;;;;4955678;29;20094;-71
2023/10/02 03:31:52;;;;;;;13.13;6.20;;;13.70;99.90;;;;;;4955838;29;20086;-69
2023/10/02 03:34:28;;;;;;;20.65;5.95;;;13.60;99.90;;;;;;4952382;29;20407;-70
2023/10/02 03:37:08;;;;;;;12.82;5.20;;;13.60;99.90;;;;;;4952643;29;20383;-71
2023/10/02 03:39:59;;;;;;;15.90;6.68;;;13.60;99.90;;;;;;4951527;29;20047;-72
2023/10/02 03:42:33;;;;;;;10.60;4.65;;;13.70;99.90;;;;;;4954895;29;20115;-70
2023/10/02 03:45:03;;;;;;;11.93;5.72;;;13.60;99.90;;;;;;4954125;29;20061;-70
2023/10/02 03:47:30;;;;;;;9.52;4.70;;;13.60;99.90;;;;;;4955010;29;20098;-71
2023/10/02 03:50:00;;;;;;;23.95;5.70;;;13.50;99.90;;;;;;4955173;29;20027;-70
2023/10/02 03:52:29;;;;;;;15.00;5.05;;;13.60;99.90;;;;;;4955638;29;20034;-71
2023/10/02 03:54:56;;;;;;;13.02;5.38;;;13.50;99.90;;;;;;4954177;29;20042;-71
2023/10/02 03:57:47;;;;;;;12.90;5.28;;;13.50;99.90;;;;;;4952287;29;20062;-71
2023/10/02 04:00:18;;;;;;;11.90;5.10;;;13.50;99.90;;;;;;4936932;29;20062;-70
2023/10/02 04:02:52;;;;;;;15.27;6.72;;;13.50;99.90;;;;;;4936570;29;20028;-72
2023/10/02 04:05:32;;;;;;;13.02;5.60;;;13.50;99.90;;;;;;4951591;29;20033;-69
2023/10/02 04:08:21;;;;;;;14.68;6.70;;;13.40;99.90;;;;;;4954728;28;20138;-71
2023/10/02 04:10:51;;;;;;;10.85;5.10;;;13.30;99.90;;;;;;4954976;29;20480;-73
2023/10/02 04:13:38;;;;;;;11.60;4.82;;;13.30;99.90;;;;;;4954829;29;20031;-71
2023/10/02 04:18:49;;;;;;;15.23;5.63;;;13.30;99.90;;;;;;4950073;29;20040;-70
2023/10/02 04:21:22;;;;;;;14.73;6.00;;;13.30;99.90;;;;;;4937853;29;20035;-69
2023/10/02 04:23:52;;;;;;;12.48;5.30;;;13.40;99.90;;;;;;4954303;29;20030;-70
2023/10/02 04:26:20;;;;;;;18.05;6.22;;;13.30;99.90;;;;;;4953787;29;20118;-69
2023/10/02 04:29:09;;;;;;;12.82;5.70;;;13.30;99.90;;;;;;4954607;29;20035;-70
2023/10/02 04:31:35;;;;;;;16.35;5.38;;;13.20;99.90;;;;;;4956143;28;20042;-70
2023/10/02 04:36:51;;;;;;;17.52;6.00;;;13.30;99.90;;;;;;4885398;29;20072;-69
2023/10/02 04:42:11;;;;;;;12.80;5.13;;;13.30;99.90;;;;;;4879492;29;20445;-70
2023/10/02 04:44:48;;;;;;;14.18;5.85;;;13.30;99.90;;;;;;4877436;29;20513;-69
2023/10/02 04:47:19;;;;;;;14.45;5.80;;;13.20;99.90;;;;;;4880163;29;20516;-69
2023/10/02 04:52:53;;;;;;;15.23;6.15;;;13.40;99.90;;;;;;4880979;29;20130;-69
2023/10/02 04:55:15;;;;;;;12.00;5.38;;;13.50;99.90;;;;;;4877445;29;20053;-70
2023/10/02 04:57:42;;;;;;;11.77;5.32;;;13.60;99.90;;;;;;4877022;29;20033;-71
2023/10/02 05:00:27;;;;;;;14.30;6.03;;;14.00;99.90;;;;;;4885088;29;20068;-72
2023/10/02 05:03:09;;;;;;;15.93;6.03;;;14.40;99.90;;;;;;4881478;29;20088;-71
2023/10/02 05:05:53;;;;;;;14.75;5.95;;;14.90;99.90;;;;;;4878269;29;20154;-71
2023/10/02 05:11:25;;;;;;;14.85;6.15;;;15.70;99.90;;;;;;4867277;29;20048;-71
2023/10/02 05:16:32;;;;;;;10.65;5.50;;;16.80;99.90;;;;;;4955370;28;20389;-71
2023/10/02 05:18:59;;;;;;;13.48;5.72;;;17.00;99.90;;;;;;4954061;29;20031;-71
2023/10/02 05:21:49;;;;;;;13.95;5.72;;;17.40;99.90;;;;;;4954125;29;20114;-72
2023/10/02 05:24:17;;;;;;;14.65;5.53;;;17.50;99.90;;;;;;4956047;28;20027;-71
2023/10/02 05:26:44;;;;;;;14.73;5.97;;;16.80;99.90;;;;;;4953879;29;20083;-71
2023/10/02 05:29:12;;;;;;;14.98;4.75;;;16.40;99.90;;;;;;4953898;29;20475;-72
2023/10/02 05:31:42;;;;;;;13.73;6.13;;;16.00;99.90;;;;;;4954019;29;20134;-70
2023/10/02 05:34:25;;;;;;;13.10;6.53;;;16.20;99.90;;;;;;4950394;28;20027;-70
2023/10/02 05:39:39;;;;;;;18.95;7.97;;;16.90;99.90;;;;;;4955905;28;20113;-72
2023/10/02 05:42:13;;;;;;;17.88;9.20;;;16.80;99.90;;;;;;4958355;28;20066;-72
2023/10/02 05:44:47;;;;;;;18.38;9.00;;;16.60;99.90;;;;;;4957227;29;20039;-71
2023/10/02 05:47:16;;;;;;;18.10;9.60;;;16.40;99.90;;;;;;4957288;29;20043;-69
2023/10/02 05:49:49;;;;;;;18.80;9.25;;;16.40;99.90;;;;;;4957596;29;20027;-72
2023/10/02 05:52:18;;;;;;;13.80;8.10;;;16.50;99.90;;;;;;4957722;29;20027;-71
2023/10/02 05:54:53;;;;;;;17.40;8.00;;;16.50;99.90;;;;;;4957398;29;20078;-72
2023/10/02 05:57:19;;;;;;;15.93;7.85;;;16.50;99.90;;;;;;4957348;29;20118;-72
2023/10/02 05:59:54;;;;;;;16.38;7.22;;;16.50;99.90;;;;;;4957344;29;20043;-71
2023/10/02 06:02:23;;;;;;;16.73;6.80;;;16.50;99.90;;;;;;4953850;29;20111;-71
2023/10/02 06:04:54;;;;;;;13.93;7.63;;;16.60;99.90;;;;;;4957993;29;20024;-71
2023/10/02 06:10:24;;;;;;;19.35;8.32;;;16.60;99.90;;;;;;4957881;29;20036;-72
2023/10/02 06:13:05;;;;;;;21.70;8.07;;;16.50;99.90;;;;;;4953098;28;20111;-72
2023/10/02 06:15:48;;;;;;;16.58;6.88;;;16.50;99.90;;;;;;4955686;28;20028;-72
2023/10/02 06:18:29;;;;;;;19.00;6.95;;;16.70;99.90;;;;;;4959789;28;20488;-73
2023/10/02 06:21:02;;;;;;;18.33;6.93;;;16.60;99.90;;;;;;4957806;29;20033;-71
2023/10/02 06:23:37;;;;;;;20.10;6.97;;;16.60;99.90;;;;;;4957785;29;20027;-71
2023/10/02 06:26:09;;;;;;;16.10;6.82;;;16.60;99.90;;;;;;4958672;28;20042;-70
2023/10/02 06:28:36;;;;;;;21.30;7.20;;;16.60;99.90;;;;;;4959828;28;20038;-72
2023/10/02 06:31:06;;;;;;;17.48;7.18;;;16.70;99.90;;;;;;4956884;29;20383;-72
2023/10/02 06:33:36;;;;;;;16.20;6.75;;;17.00;99.90;;;;;;4957572;28;20110;-70
2023/10/02 06:36:08;;;;;;;13.60;6.82;;;17.00;99.90;;;;;;4956997;28;20027;-71
2023/10/02 06:38:35;;;;;;;14.40;6.57;;;17.00;99.90;;;;;;4956813;29;20352;-71
2023/10/02 06:41:09;;;;;;;13.38;5.00;;;17.10;99.90;;;;;;4956589;29;20519;-71
2023/10/02 06:43:35;;;;;;;13.25;5.43;;;17.30;99.90;;;;;;4954536;29;20053;-71
2023/10/02 06:46:16;;;;;;;22.60;6.22;;;17.40;99.90;;;;;;4956592;29;20071;-71
2023/10/02 06:48:46;;;;;;;12.25;5.30;;;17.40;99.90;;;;;;4955261;28;20499;-71
2023/10/02 06:51:16;;;;;;;12.63;5.03;;;17.40;99.90;;;;;;4955156;29;20031;-72
2023/10/02 06:53:43;;;;;;;14.35;5.15;;;17.60;99.90;;;;;;4956582;28;20027;-71
2023/10/02 06:56:13;;;;;;;12.90;5.50;;;17.60;99.90;;;;;;4956521;29;20145;-72
2023/10/02 06:58:56;;;;;;;14.80;5.82;;;17.70;99.90;;;;;;4956317;29;20118;-72
2023/10/02 07:01:30;;;;;;;13.07;5.78;;;17.80;99.90;;;;;;4956237;29;20027;-72
2023/10/02 07:03:56;;;;;;;14.52;5.25;;;17.90;99.90;;;;;;4953243;29;20027;-71
2023/10/02 07:06:26;;;;;;;15.98;6.68;;;18.10;99.90;;;;;;4955981;29;20055;-71
2023/10/02 07:09:12;;;;;;;13.43;5.28;;;18.20;99.90;;;;;;4956025;29;20023;-72
2023/10/02 07:11:39;;;;;;;15.75;6.13;;;18.50;99.90;;;;;;4956265;29;20022;-73
2023/10/02 07:14:06;;;;;;;15.80;5.55;;;18.40;99.90;;;;;;4955906;29;20020;-72
2023/10/02 07:16:32;;;;;;;14.50;5.45;;;18.70;99.90;;;;;;4956057;29;20131;-71
2023/10/02 07:18:59;;;;;;;14.20;6.20;;;18.70;99.90;;;;;;4956058;29;20386;-72
2023/10/02 07:21:27;;;;;;;13.63;6.22;;;18.80;99.90;;;;;;4952511;29;20024;-72
2023/10/02 07:23:54;;;;;;;16.58;5.72;;;19.00;99.90;;;;;;4955766;29;20019;-71
2023/10/02 07:26:20;;;;;;;14.15;5.55;;;19.10;99.90;;;;;;4956288;29;20030;-72
2023/10/02 07:28:53;;;;;;;16.10;6.00;;;19.20;99.90;;;;;;4956126;29;20034;-72
2023/10/02 07:31:22;;;;;;;16.10;6.30;;;19.20;99.90;;;;;;4956004;29;20383;-71
2023/10/02 07:33:49;;;;;;;16.77;6.22;;;19.40;99.90;;;;;;4952283;29;20035;-73
2023/10/02 07:36:15;;;;;;;16.83;6.38;;;19.60;99.90;;;;;;4955611;29;20400;-71
2023/10/02 07:38:42;;;;;;;14.18;6.38;;;19.70;99.90;;;;;;4955463;29;20059;-71
2023/10/02 07:41:28;;;;;;;13.95;5.47;;;20.10;99.90;;;;;;4955627;29;20391;-70
2023/10/02 07:44:07;;;;;;;13.93;6.10;;;20.20;99.90;;;;;;4951873;29;20039;-71
2023/10/02 07:46:33;;;;;;;12.52;5.20;;;20.40;99.90;;;;;;4955105;29;20053;-71
2023/10/02 07:49:00;;;;;;;15.40;6.15;;;20.50;99.90;;;;;;4955456;29;20035;-71
2023/10/02 07:51:37;;;;;;;11.98;5.25;;;20.60;99.90;;;;;;4956070;29;20046;-71
2023/10/02 07:54:13;;;;;;;13.27;6.45;;;20.70;98.80;;;;;;4955760;29;20035;-71
2023/10/02 07:56:41;;;;;;;12.75;5.53;;;20.70;99.80;;;;;;4955690;29;20491;-71
2023/10/02 07:59:07;;;;;;;15.75;5.75;;;20.70;99.90;;;;;;4955899;28;20038;-71
2023/10/02 08:01:33;;;;;;;15.52;5.68;;;20.90;99.30;;;;;;4955678;29;20110;-71
2023/10/02 08:04:03;;;;;;;15.65;6.45;;;20.80;99.60;;;;;;4956213;29;20019;-74
2023/10/02 08:06:36;;;;;;;11.23;5.20;;;20.70;99.50;;;;;;4955247;29;20043;-71
2023/10/02 08:11:53;;;;;;;15.18;5.60;;;20.70;99.00;;;;;;4954780;29;20102;-71
2023/10/02 08:14:42;;;;;;;13.35;5.00;;;20.70;98.60;;;;;;4955676;29;20034;-71
2023/10/02 08:17:22;;;;;;;8.63;4.68;;;20.70;99.00;;;;;;4938674;29;20558;-70
2023/10/02 08:19:55;;;;;;;13.85;5.55;;;20.70;99.90;;;;;;4947302;29;20031;-71
2023/10/02 08:22:23;;;;;;;14.20;5.75;;;20.90;99.10;;;;;;4955467;29;20023;-72
2023/10/02 08:24:50;;;;;;;14.65;6.28;;;21.00;98.50;;;;;;4955357;29;20479;-72
2023/10/02 08:27:16;;;;;;;17.05;5.90;;;21.10;98.60;;;;;;4955377;28;20039;-71
2023/10/02 08:29:44;;;;;;;16.35;5.68;;;21.30;98.70;;;;;;4955414;29;20093;-71
2023/10/02 08:32:11;;;;;;;16.98;5.82;;;21.10;99.10;;;;;;4955139;29;20035;-71
2023/10/02 08:34:36;;;;;;;12.30;5.00;;;21.30;99.20;;;;;;4955450;29;20023;-71
2023/10/02 08:37:07;;;;;;;14.38;5.43;;;21.30;99.90;;;;;;4955108;29;20019;-71
2023/10/02 08:39:36;;;;;;;15.65;5.15;;;21.40;99.90;;;;;;4955496;29;20067;-71
2023/10/02 08:42:11;;;;;;;11.68;5.47;;;21.30;99.90;;;;;;4954386;29;20023;-71
2023/10/02 08:44:40;;;;;;;14.00;5.93;;;21.50;99.90;;;;;;4934872;29;20028;-70
2023/10/02 08:47:26;;;;;;;15.05;6.28;;;21.50;99.90;;;;;;4955002;29;20047;-71
2023/10/02 08:50:03;;;;;;;17.17;5.63;;;21.50;99.90;;;;;;4955429;29;20023;-71
2023/10/02 08:52:47;;;;;;;15.15;6.18;;;21.60;99.90;;;;;;4954543;29;20031;-71
2023/10/02 08:55:37;;;;;;;14.35;6.45;;;21.60;99.90;;;;;;4952279;28;20373;-71
2023/10/02 08:58:16;;;;;;;20.92;5.38;;;21.50;99.90;;;;;;4957967;28;20063;-73
2023/10/02 09:03:42;;;;;;;14.20;5.10;;;21.40;99.90;;;;;;4947193;29;20038;-71
2023/10/02 09:06:31;;;;;;;12.55;5.03;;;21.40;99.90;;;;;;4956060;28;20035;-71
2023/10/02 09:11:41;;;;;;;20.20;6.10;;;21.40;99.90;;;;;;4945627;29;20031;-71
2023/10/02 09:14:23;;;;;;;10.43;5.05;;;21.40;99.90;;;;;;4960550;28;20027;-71
2023/10/02 09:19:39;;;;;;;14.35;4.93;;;21.50;99.90;;;;;;4956524;28;20028;-71
2023/10/02 09:22:12;;;;;;;13.98;4.75;;;21.60;99.90;;;;;;4954228;29;20050;-71
2023/10/02 09:24:55;;;;;;;12.52;4.65;;;21.60;96.50;;;;;;4948708;29;20111;-71
2023/10/02 09:27:27;;;;;;;12.73;5.10;;;21.60;96.00;;;;;;4954458;29;20034;-71
2023/10/02 09:32:47;;;;;;;16.08;5.63;;;22.30;99.00;;;;;;4954419;29;20140;-71
2023/10/02 09:35:40;;;;;;;11.00;4.78;;;22.70;97.60;;;;;;4954448;29;20379;-70
2023/10/02 09:38:13;;;;;;;11.73;4.75;;;22.50;97.50;;;;;;4954742;29;20039;-71
2023/10/02 09:43:31;;;;;;;14.77;5.22;;;22.70;96.70;;;;;;4954765;29;20028;-71
2023/10/02 09:46:15;;;;;;;11.73;5.13;;;22.80;93.80;;;;;;4954329;29;20062;-71
2023/10/02 09:49:07;;;;;;;15.75;5.82;;;23.00;94.40;;;;;;4954260;29;20114;-71
2023/10/02 09:51:45;;;;;;;14.50;5.82;;;;;;;;;;4954350;29;20460;-71
2023/10/02 09:54:34;;;;;;;11.60;5.10;;;23.50;99.90;;;;;;4954393;29;20042;-71
2023/10/02 09:57:06;;;;;;;12.50;4.75;;;;;;;;;;4943982;29;20051;-71
2023/10/02 09:59:54;;;;;;;15.65;5.45;;;;;;;;;;4954298;29;20032;-69
2023/10/02 10:08:18;;;;;;;14.70;5.00;;;;;;;;;;4953595;29;20055;-70
2023/10/02 10:10:47;;;;;;;12.50;5.43;;;23.40;93.50;;;;;;4952437;29;20035;-70
2023/10/02 10:13:36;;;;;;;16.80;4.75;;;23.40;93.90;;;;;;4954599;29;20102;-71
2023/10/02 10:16:20;;;;;;;12.60;6.70;;;23.50;94.90;;;;;;4954260;29;20031;-69
2023/10/02 10:21:56;;;;;;;13.40;5.45;;;23.10;94.70;;;;;;4895130;29;20119;-70
2023/10/02 10:25:22;;;;;;;13.23;5.75;;;23.00;94.80;;;;;;4886123;29;20043;-70
2023/10/02 10:28:06;;;;;;;;;;;23.10;96.20;;;;;;4898939;29;20139;-71
2023/10/02 10:30:39;;;;;;;14.20;6.47;;;23.40;93.90;;;;;;4898325;29;19911;-71
2023/10/02 10:35:40;;;;;;;13.85;5.72;;;23.30;93.80;;;;;;4898112;29;20037;-70
2023/10/02 10:41:39;;;;;;;11.07;5.68;;;23.30;93.50;;;;;;4898475;29;20049;-72
2023/10/02 10:44:15;;;;;;;15.05;5.22;;;23.50;94.20;;;;;;4897427;29;20059;-70
2023/10/02 10:46:47;;;;;;;13.70;5.60;;;23.50;93.40;;;;;;4882012;29;20101;-70
2023/10/02 10:49:23;;;;;;;;;;;23.50;93.90;;;;;;4898506;29;20049;-71
2023/10/02 10:51:52;;;;;;;15.57;7.07;;;23.50;94.80;;;;;;4897791;29;20014;-71
2023/10/02 10:54:19;;;;;;;17.23;5.55;;;23.40;94.20;;;;;;4891233;29;20481;-73
2023/10/02 10:56:57;;;;;;;14.60;4.78;;;23.40;93.40;;;;;;4897816;29;20040;-71
2023/10/02 10:59:33;;;;;;;15.65;6.43;;;23.30;93.50;;;;;;4942577;29;20039;-71
2023/10/02 11:02:12;;;;;;;12.60;5.35;;;23.20;93.60;;;;;;4956930;29;20030;-71
2023/10/02 11:04:52;;;;;;;14.00;4.75;;;23.40;94.30;;;;;;4956462;29;20069;-71
2023/10/02 11:07:25;;;;;;;11.25;5.00;;;23.60;94.80;;;;;;4956974;29;20458;-71
2023/10/02 11:10:14;;;;;;;11.18;5.05;;;23.70;93.30;;;;;;4944977;29;20475;-72
2023/10/02 11:12:54;;;;;;;15.88;5.80;;;23.70;91.30;;;;;;4956614;29;20487;-71
2023/10/02 11:18:18;;;;;;;14.27;4.57;;;23.60;91.80;;;;;;4956724;29;20035;-71
2023/10/02 11:20:51;;;;;;;12.02;5.13;;;23.70;92.80;;;;;;4956458;29;20030;-71
2023/10/02 11:23:46;;;;;;;11.88;5.65;;;23.50;92.70;;;;;;4956482;29;20031;-71
2023/10/02 11:26:15;;;;;;;11.73;5.47;;;23.50;93.10;;;;;;4944432;29;20427;-71
2023/10/02 11:28:49;;;;;;;12.52;5.60;;;23.50;92.60;;;;;;4956314;29;20077;-71
2023/10/02 11:31:32;;;;;;;12.07;5.60;;;23.60;93.60;;;;;;4956263;29;20062;-73
2023/10/02 11:34:03;;;;;;;12.90;6.15;;;23.70;93.00;;;;;;4955657;28;20094;-71
2023/10/02 11:36:35;;;;;;;11.63;5.67;;;23.80;92.90;;;;;;4955929;29;20035;-71
2023/10/02 11:39:19;;;;;;;;;;;23.50;93.20;;;;;;4924523;29;20110;-71
2023/10/02 11:41:50;;;;;;;11.88;4.88;;;23.60;93.80;;;;;;4952832;29;19997;-71
2023/10/02 11:44:16;;;;;;;12.32;6.32;;;23.60;94.50;;;;;;4956338;29;20066;-71
2023/10/02 11:46:43;;;;;;;11.10;5.47;;;23.70;94.40;;;;;;4955579;29;20122;-71
2023/10/02 11:49:13;;;;;;;11.45;5.53;;;;;;;;;;4956078;29;20074;-71
2023/10/02 11:51:44;;;;;;;12.38;6.25;;;23.80;91.70;;;;;;4955968;29;20027;-70
2023/10/02 11:54:11;;;;;;;15.85;6.25;;;23.70;92.00;;;;;;4956019;29;20034;-70
2023/10/02 11:56:39;;;;;;;15.02;5.30;;;23.60;91.40;;;;;;4955729;29;20468;-70
2023/10/02 11:59:07;;;;;;;12.25;5.18;;;23.60;91.00;;;;;;4956093;29;20039;-70
2023/10/02 12:01:32;;;;;;;12.18;5.45;;;23.50;91.40;;;;;;4955848;29;20019;-70
2023/10/02 12:03:58;;;;;;;13.07;5.72;;;23.60;90.90;;;;;;4955869;29;20379;-71
2023/10/02 12:06:25;;;;;;;14.07;4.78;;;23.30;91.60;;;;;;4953684;29;20126;-70
2023/10/02 12:08:54;;;;;;;12.63;5.53;;;23.50;91.40;;;;;;4955710;29;20042;-70
2023/10/02 12:11:20;;;;;;;12.65;5.00;;;23.60;90.50;;;;;;4956024;29;20030;-70
2023/10/02 12:13:47;;;;;;;11.10;5.15;;;23.60;90.50;;;;;;4955172;29;20039;-70
2023/10/02 12:16:12;;;;;;;13.18;5.30;;;23.60;89.80;;;;;;4955968;29;20034;-71
2023/10/02 12:18:40;;;;;;;13.43;6.15;;;23.60;90.50;;;;;;4955380;29;20032;-70
2023/10/02 12:21:14;;;;;;;12.43;5.53;;;23.60;89.90;;;;;;4955511;29;20027;-70
2023/10/02 12:23:43;;;;;;;14.05;5.70;;;23.60;90.00;;;;;;4955280;29;20042;-70
2023/10/02 12:26:25;;;;;;;11.23;4.78;;;23.60;90.60;;;;;;4955734;29;20024;-70
2023/10/02 12:28:51;;;;;;;11.02;5.25;;;23.50;90.50;;;;;;4955130;29;20428;-70
2023/10/02 12:31:19;;;;;;;10.57;4.88;;;23.50;90.80;;;;;;4955407;29;20111;-71
2023/10/02 12:33:46;;;;;;;7.97;4.30;;;23.50;90.70;;;;;;4955197;29;20031;-71
2023/10/02 12:36:17;;;;;;;10.27;4.93;;;23.50;88.20;;;;;;4955316;29;20030;-70
2023/10/02 12:38:44;;;;;;;13.18;4.90;;;23.50;89.80;;;;;;4955344;29;20107;-72
2023/10/02 12:41:21;;;;;;;9.68;5.07;;;23.50;90.30;;;;;;4955335;29;20027;-71
2023/10/02 12:43:55;;;;;;;12.43;4.97;;;23.40;89.40;;;;;;4955066;29;20027;-70
2023/10/02 12:46:23;;;;;;;8.85;4.55;;;23.50;88.70;;;;;;4954356;28;20514;-70
2023/10/02 12:48:50;;;;;;;10.20;4.07;;;23.60;89.50;;;;;;4954762;29;20054;-71
2023/10/02 12:51:17;;;;;;;10.77;5.13;;;23.60;89.00;;;;;;4955207;29;20027;-72
2023/10/02 12:53:43;;;;;;;9.60;4.38;;;23.50;87.70;;;;;;4955297;29;20026;-70
2023/10/02 12:56:19;;;;;;;13.52;4.85;;;23.50;89.50;;;;;;4954801;29;20023;-72
2023/10/02 12:58:48;;;;;;;7.60;4.15;;;23.50;88.80;;;;;;4955094;29;20522;-72
2023/10/02 13:01:18;;;;;;;12.13;5.18;;;23.50;86.90;;;;;;4954780;29;20027;-71
2023/10/02 13:03:45;;;;;;;11.00;4.15;;;23.50;88.30;;;;;;4955073;29;20035;-70
2023/10/02 13:06:13;;;;;;;12.15;5.53;;;23.60;88.20;;;;;;4954932;29;20494;-71
2023/10/02 13:08:42;;;;;;;9.30;4.57;;;23.60;88.60;;;;;;4954811;29;20061;-71
2023/10/02 13:11:12;;;;;;;8.13;4.30;;;23.60;89.00;;;;;;4954363;29;20495;-71
2023/10/02 13:13:44;;;;;;;16.15;5.63;;;23.50;88.50;;;;;;4954756;29;20066;-71
2023/10/02 13:16:11;;;;;;;14.77;5.60;;;23.40;89.20;;;;;;4954686;29;20031;-71
2023/10/02 13:18:38;;;;;;;11.70;5.28;;;23.40;87.90;;;;;;4954681;29;20024;-71
2023/10/02 13:21:08;;;;;;;11.50;5.30;;;23.50;88.80;;;;;;4942058;29;20024;-71
2023/10/02 13:23:37;;;;;;;11.35;5.47;;;23.60;88.30;;;;;;4954430;29;20023;-70
2023/10/02 13:26:16;;;;;;;12.73;5.57;;;23.60;89.00;;;;;;4954635;29;20380;-72
2023/10/02 13:28:48;;;;;;;14.95;5.22;;;23.80;90.10;;;;;;4954376;29;20042;-71
2023/10/02 13:31:16;;;;;;;11.02;4.85;;;23.90;90.60;;;;;;4954864;29;20027;-71
2023/10/02 13:33:47;;;;;;;11.90;5.32;;;23.90;89.50;;;;;;4941837;29;20024;-71
2023/10/02 13:36:17;;;;;;;13.68;5.32;;;23.90;88.50;;;;;;4954449;29;20034;-71
2023/10/02 13:38:46;;;;;;;13.52;5.50;;;23.80;89.70;;;;;;4954518;29;20371;-71
2023/10/02 13:41:12;;;;;;;12.82;5.72;;;23.80;86.90;;;;;;4954496;29;20023;-71
2023/10/02 13:43:44;;;;;;;11.15;5.20;;;23.80;88.50;;;;;;4954497;29;20102;-71
2023/10/02 13:46:17;;;;;;;12.20;5.45;;;23.90;89.30;;;;;;4954484;29;20055;-72
2023/10/02 13:48:44;;;;;;;11.50;5.18;;;24.00;87.70;;;;;;4954446;29;20049;-70
2023/10/02 13:51:10;;;;;;;9.35;4.57;;;23.90;89.30;;;;;;4954326;29;20039;-71
2023/10/02 13:53:37;;;;;;;12.05;4.78;;;23.90;87.50;;;;;;4954698;29;20027;-72
2023/10/02 13:56:10;;;;;;;16.15;5.90;;;23.80;86.50;;;;;;4953428;29;20070;-73
2023/10/02 13:58:51;;;;;;;11.23;4.50;;;23.90;86.10;;;;;;4957139;28;20023;-70
2023/10/02 14:01:21;;;;;;;9.50;4.30;;;23.80;85.50;;;;;;4955217;29;20110;-69
2023/10/02 14:03:54;;;;;;;11.10;4.72;;;23.80;85.30;;;;;;4957860;29;20031;-71
2023/10/02 14:06:28;;;;;;;10.50;4.82;;;23.80;84.30;;;;;;4957806;29;20118;-70
2023/10/02 14:08:55;;;;;;;11.63;5.22;;;23.80;84.50;;;;;;4957834;29;20122;-71
2023/10/02 14:11:26;;;;;;;10.25;4.60;;;23.70;84.70;;;;;;4958058;29;20375;-71
2023/10/02 14:13:54;;;;;;;11.02;4.97;;;23.70;85.90;;;;;;4957461;29;20548;-70
2023/10/02 14:16:20;;;;;;;11.93;5.22;;;23.60;86.40;;;;;;4957264;29;20031;-70